sensor_id;sensor_type;location;lat;lon;timestamp;temperature;humidity
62555;DHT22;48610;52.144;8.624;2023-03-14T00:01:13;11.90;99.90
62555;DHT22;48610;52.144;8.624;2023-03-14T00:04:14;11.80;99.90
62555;DHT22;48610;52.144;8.624;2023-03-14T00:07:14;11.90;99.90
62555;DHT22;48610;52.144;8.624;2023-03-14T00:10:15;12.00;99.90
62555;DHT22;48610;52.144;8.624;2023-03-14T00:13:16;12.00;99.90
62555;DHT22;48610;52.144;8.624;2023-03-14T00:16:17;11.90;99.90
62555;DHT22;48610;52.144;8.624;2023-03-14T00:19:18;11.90;99.90
62555;DHT22;48610;52.144;8.624;2023-03-14T00:22:18;11.90;99.90
62555;DHT22;48610;52.144;8.624;2023-03-14T00:25:20;11.90;99.90
62555;DHT22;48610;52.144;8.624;2023-03-14T00:28:20;11.90;99.90
62555;DHT22;48610;52.144;8.624;2023-03-14T00:31:21;12.00;99.90
62555;DHT22;48610;52.144;8.624;2023-03-14T00:34:22;11.90;99.90
62555;DHT22;48610;52.144;8.624;2023-03-14T00:37:23;12.00;99.90
62555;DHT22;48610;52.144;8.624;2023-03-14T00:40:23;11.90;99.90
62555;DHT22;48610;52.144;8.624;2023-03-14T00:43:24;11.80;99.90
62555;DHT22;48610;52.144;8.624;2023-03-14T00:46:25;11.70;99.90
62555;DHT22;48610;52.144;8.624;2023-03-14T00:49:26;11.80;99.90
62555;DHT22;48610;52.144;8.624;2023-03-14T00:52:26;11.90;99.90
62555;DHT22;48610;52.144;8.624;2023-03-14T00:55:27;12.00;99.90
62555;DHT22;48610;52.144;8.624;2023-03-14T00:58:27;12.00;99.90
62555;DHT22;48610;52.144;8.624;2023-03-14T01:01:28;12.00;99.90
62555;DHT22;48610;52.144;8.624;2023-03-14T01:04:29;12.00;99.90
62555;DHT22;48610;52.144;8.624;2023-03-14T01:07:30;12.00;99.90
62555;DHT22;48610;52.144;8.624;2023-03-14T01:10:31;12.10;99.90
62555;DHT22;48610;52.144;8.624;2023-03-14T01:13:32;12.00;99.90
62555;DHT22;48610;52.144;8.624;2023-03-14T01:16:34;11.90;99.90
62555;DHT22;48610;52.144;8.624;2023-03-14T01:19:35;11.90;99.90
62555;DHT22;48610;52.144;8.624;2023-03-14T01:22:36;11.80;99.90
62555;DHT22;48610;52.144;8.624;2023-03-14T01:25:41;11.80;99.90
62555;DHT22;48610;52.144;8.624;2023-03-14T01:28:42;11.80;99.90
62555;DHT22;48610;52.144;8.624;2023-03-14T01:31:42;11.80;99.90
62555;DHT22;48610;52.144;8.624;2023-03-14T01:34:43;11.90;99.90
62555;DHT22;48610;52.144;8.624;2023-03-14T01:37:43;11.80;99.90
62555;DHT22;48610;52.144;8.624;2023-03-14T01:40:44;11.90;99.90
62555;DHT22;48610;52.144;8.624;2023-03-14T01:43:45;11.80;99.90
62555;DHT22;48610;52.144;8.624;2023-03-14T01:46:46;11.70;99.90
62555;DHT22;48610;52.144;8.624;2023-03-14T01:49:53;11.80;99.90
62555;DHT22;48610;52.144;8.624;2023-03-14T01:52:54;11.90;99.90
62555;DHT22;48610;52.144;8.624;2023-03-14T01:55:56;11.90;99.90
62555;DHT22;48610;52.144;8.624;2023-03-14T01:58:58;11.80;99.90
62555;DHT22;48610;52.144;8.624;2023-03-14T02:02:05;11.90;99.90
62555;DHT22;48610;52.144;8.624;2023-03-14T02:05:08;11.90;99.90
62555;DHT22;48610;52.144;8.624;2023-03-14T02:08:15;12.00;99.90
62555;DHT22;48610;52.144;8.624;2023-03-14T02:11:17;11.90;99.90
62555;DHT22;48610;52.144;8.624;2023-03-14T02:14:27;11.90;99.90
62555;DHT22;48610;52.144;8.624;2023-03-14T02:17:30;11.90;99.90
62555;DHT22;48610;52.144;8.624;2023-03-14T02:20:47;11.90;99.90
62555;DHT22;48610;52.144;8.624;2023-03-14T02:24:15;11.80;99.90
62555;DHT22;48610;52.144;8.624;2023-03-14T02:27:21;11.90;99.90
62555;DHT22;48610;52.144;8.624;2023-03-14T02:30:24;11.90;99.90
62555;DHT22;48610;52.144;8.624;2023-03-14T02:33:25;11.90;99.90
62555;DHT22;48610;52.144;8.624;2023-03-14T02:36:26;11.90;99.90
62555;DHT22;48610;52.144;8.624;2023-03-14T02:39:35;12.00;99.90
62555;DHT22;48610;52.144;8.624;2023-03-14T02:42:37;11.80;99.90
62555;DHT22;48610;52.144;8.624;2023-03-14T02:45:39;11.00;99.90
62555;DHT22;48610;52.144;8.624;2023-03-14T02:51:45;10.50;99.90
62555;DHT22;48610;52.144;8.624;2023-03-14T02:54:46;10.30;99.90
62555;DHT22;48610;52.144;8.624;2023-03-14T02:57:46;10.20;99.90
62555;DHT22;48610;52.144;8.624;2023-03-14T03:00:47;10.10;99.90
62555;DHT22;48610;52.144;8.624;2023-03-14T03:03:48;10.00;99.90
62555;DHT22;48610;52.144;8.624;2023-03-14T03:06:48;10.00;99.90
62555;DHT22;48610;52.144;8.624;2023-03-14T03:09:49;9.90;99.90
62555;DHT22;48610;52.144;8.624;2023-03-14T03:12:50;9.80;99.90
62555;DHT22;48610;52.144;8.624;2023-03-14T03:15:53;9.70;99.90
62555;DHT22;48610;52.144;8.624;2023-03-14T03:18:53;9.70;99.90
62555;DHT22;48610;52.144;8.624;2023-03-14T03:21:54;9.60;99.90
62555;DHT22;48610;52.144;8.624;2023-03-14T03:24:54;9.70;99.90
62555;DHT22;48610;52.144;8.624;2023-03-14T03:27:55;9.80;99.90
62555;DHT22;48610;52.144;8.624;2023-03-14T03:30:56;9.70;99.90
62555;DHT22;48610;52.144;8.624;2023-03-14T03:33:57;9.80;99.90
62555;DHT22;48610;52.144;8.624;2023-03-14T03:36:58;9.80;99.90
62555;DHT22;48610;52.144;8.624;2023-03-14T03:39:59;9.80;99.90
62555;DHT22;48610;52.144;8.624;2023-03-14T03:43:00;9.90;99.90
62555;DHT22;48610;52.144;8.624;2023-03-14T03:46:05;9.90;99.90
62555;DHT22;48610;52.144;8.624;2023-03-14T03:49:06;9.90;99.90
62555;DHT22;48610;52.144;8.624;2023-03-14T03:52:07;9.80;99.90
62555;DHT22;48610;52.144;8.624;2023-03-14T03:55:08;9.80;99.90
62555;DHT22;48610;52.144;8.624;2023-03-14T03:58:08;9.80;99.90
62555;DHT22;48610;52.144;8.624;2023-03-14T04:01:09;9.90;99.90
62555;DHT22;48610;52.144;8.624;2023-03-14T04:04:11;9.90;99.90
62555;DHT22;48610;52.144;8.624;2023-03-14T04:07:12;9.90;99.90
62555;DHT22;48610;52.144;8.624;2023-03-14T04:10:14;9.90;99.90
62555;DHT22;48610;52.144;8.624;2023-03-14T04:13:14;9.90;99.90
62555;DHT22;48610;52.144;8.624;2023-03-14T04:16:18;9.90;99.90
62555;DHT22;48610;52.144;8.624;2023-03-14T04:19:20;9.90;99.90
62555;DHT22;48610;52.144;8.624;2023-03-14T04:22:21;9.90;99.90
62555;DHT22;48610;52.144;8.624;2023-03-14T04:25:21;9.80;99.90
62555;DHT22;48610;52.144;8.624;2023-03-14T04:28:22;9.90;99.90
62555;DHT22;48610;52.144;8.624;2023-03-14T04:31:22;9.90;99.90
62555;DHT22;48610;52.144;8.624;2023-03-14T04:34:23;9.60;99.90
62555;DHT22;48610;52.144;8.624;2023-03-14T04:37:23;9.80;99.90
62555;DHT22;48610;52.144;8.624;2023-03-14T04:40:24;9.70;99.90
62555;DHT22;48610;52.144;8.624;2023-03-14T04:43:25;9.70;99.90
62555;DHT22;48610;52.144;8.624;2023-03-14T04:46:26;9.80;99.90
62555;DHT22;48610;52.144;8.624;2023-03-14T04:49:27;9.80;99.90
62555;DHT22;48610;52.144;8.624;2023-03-14T04:52:27;9.70;99.90
62555;DHT22;48610;52.144;8.624;2023-03-14T04:55:28;9.60;99.90
62555;DHT22;48610;52.144;8.624;2023-03-14T04:58:28;9.60;99.90
62555;DHT22;48610;52.144;8.624;2023-03-14T05:01:29;9.70;99.90
62555;DHT22;48610;52.144;8.624;2023-03-14T05:04:32;9.70;99.90
62555;DHT22;48610;52.144;8.624;2023-03-14T05:07:34;9.60;99.90
62555;DHT22;48610;52.144;8.624;2023-03-14T05:10:34;9.60;99.90
62555;DHT22;48610;52.144;8.624;2023-03-14T05:13:36;9.50;99.90
62555;DHT22;48610;52.144;8.624;2023-03-14T05:16:36;9.60;99.90
62555;DHT22;48610;52.144;8.624;2023-03-14T05:19:37;9.60;99.90
62555;DHT22;48610;52.144;8.624;2023-03-14T05:22:39;9.70;99.90
62555;DHT22;48610;52.144;8.624;2023-03-14T05:25:39;9.80;99.90
62555;DHT22;48610;52.144;8.624;2023-03-14T05:28:40;9.80;99.90
62555;DHT22;48610;52.144;8.624;2023-03-14T05:31:42;9.90;99.90
62555;DHT22;48610;52.144;8.624;2023-03-14T05:34:42;9.80;99.90
62555;DHT22;48610;52.144;8.624;2023-03-14T05:37:43;9.80;99.90
62555;DHT22;48610;52.144;8.624;2023-03-14T05:40:44;9.60;99.90
62555;DHT22;48610;52.144;8.624;2023-03-14T05:43:45;9.70;99.90
62555;DHT22;48610;52.144;8.624;2023-03-14T05:46:46;9.70;99.90
62555;DHT22;48610;52.144;8.624;2023-03-14T05:49:46;9.50;99.90
62555;DHT22;48610;52.144;8.624;2023-03-14T05:52:47;9.60;99.90
62555;DHT22;48610;52.144;8.624;2023-03-14T05:55:53;9.60;99.90
62555;DHT22;48610;52.144;8.624;2023-03-14T05:58:54;9.60;99.90
62555;DHT22;48610;52.144;8.624;2023-03-14T06:01:55;9.70;99.90
62555;DHT22;48610;52.144;8.624;2023-03-14T06:04:56;9.70;99.90
62555;DHT22;48610;52.144;8.624;2023-03-14T06:07:57;9.80;99.90
62555;DHT22;48610;52.144;8.624;2023-03-14T06:10:57;9.80;99.90
62555;DHT22;48610;52.144;8.624;2023-03-14T06:13:59;9.70;99.90
62555;DHT22;48610;52.144;8.624;2023-03-14T06:17:00;9.90;99.90
62555;DHT22;48610;52.144;8.624;2023-03-14T06:20:00;9.80;99.90
62555;DHT22;48610;52.144;8.624;2023-03-14T06:23:01;9.80;99.90
62555;DHT22;48610;52.144;8.624;2023-03-14T06:26:02;9.70;99.90
62555;DHT22;48610;52.144;8.624;2023-03-14T06:29:02;9.70;99.90
62555;DHT22;48610;52.144;8.624;2023-03-14T06:32:04;9.60;99.90
62555;DHT22;48610;52.144;8.624;2023-03-14T06:35:05;9.70;99.90
62555;DHT22;48610;52.144;8.624;2023-03-14T06:38:06;9.70;99.90
62555;DHT22;48610;52.144;8.624;2023-03-14T06:41:07;9.60;99.90
62555;DHT22;48610;52.144;8.624;2023-03-14T06:44:08;9.70;99.90
62555;DHT22;48610;52.144;8.624;2023-03-14T06:47:08;9.70;99.90
62555;DHT22;48610;52.144;8.624;2023-03-14T06:50:10;9.70;99.90
62555;DHT22;48610;52.144;8.624;2023-03-14T06:53:10;9.60;99.90
62555;DHT22;48610;52.144;8.624;2023-03-14T06:56:11;9.40;99.90
62555;DHT22;48610;52.144;8.624;2023-03-14T06:59:18;9.40;99.90
62555;DHT22;48610;52.144;8.624;2023-03-14T07:02:30;9.40;99.90
62555;DHT22;48610;52.144;8.624;2023-03-14T07:05:30;9.50;99.90
62555;DHT22;48610;52.144;8.624;2023-03-14T07:08:32;9.60;99.90
62555;DHT22;48610;52.144;8.624;2023-03-14T07:11:34;9.60;99.90
62555;DHT22;48610;52.144;8.624;2023-03-14T07:14:34;9.70;99.90
62555;DHT22;48610;52.144;8.624;2023-03-14T07:17:39;9.70;99.90
62555;DHT22;48610;52.144;8.624;2023-03-14T07:20:40;9.60;99.90
62555;DHT22;48610;52.144;8.624;2023-03-14T07:23:40;9.60;99.90
62555;DHT22;48610;52.144;8.624;2023-03-14T07:26:41;9.60;99.90
62555;DHT22;48610;52.144;8.624;2023-03-14T07:29:44;9.60;99.90
62555;DHT22;48610;52.144;8.624;2023-03-14T07:32:44;9.40;99.90
62555;DHT22;48610;52.144;8.624;2023-03-14T07:35:51;9.40;99.90
62555;DHT22;48610;52.144;8.624;2023-03-14T07:38:52;9.30;99.90
62555;DHT22;48610;52.144;8.624;2023-03-14T07:41:54;9.50;99.90
62555;DHT22;48610;52.144;8.624;2023-03-14T07:44:54;9.30;99.90
62555;DHT22;48610;52.144;8.624;2023-03-14T07:47:56;9.30;99.90
62555;DHT22;48610;52.144;8.624;2023-03-14T07:50:57;9.30;99.90
62555;DHT22;48610;52.144;8.624;2023-03-14T07:53:58;9.40;99.90
62555;DHT22;48610;52.144;8.624;2023-03-14T07:56:59;9.50;99.90
62555;DHT22;48610;52.144;8.624;2023-03-14T08:00:00;9.50;99.90
62555;DHT22;48610;52.144;8.624;2023-03-14T08:03:01;9.50;99.90
62555;DHT22;48610;52.144;8.624;2023-03-14T08:06:02;9.40;99.90
62555;DHT22;48610;52.144;8.624;2023-03-14T08:09:03;9.40;99.90
62555;DHT22;48610;52.144;8.624;2023-03-14T08:12:04;9.50;99.90
62555;DHT22;48610;52.144;8.624;2023-03-14T08:15:05;9.60;99.90
62555;DHT22;48610;52.144;8.624;2023-03-14T08:18:06;9.60;99.90
62555;DHT22;48610;52.144;8.624;2023-03-14T08:21:06;9.70;99.90
62555;DHT22;48610;52.144;8.624;2023-03-14T08:24:07;9.80;99.90
62555;DHT22;48610;52.144;8.624;2023-03-14T08:27:08;9.70;99.90
62555;DHT22;48610;52.144;8.624;2023-03-14T08:30:11;9.80;99.90
62555;DHT22;48610;52.144;8.624;2023-03-14T08:33:11;9.80;99.90
62555;DHT22;48610;52.144;8.624;2023-03-14T08:36:12;9.90;99.90
62555;DHT22;48610;52.144;8.624;2023-03-14T08:39:13;10.00;99.90
62555;DHT22;48610;52.144;8.624;2023-03-14T08:42:13;9.90;99.90
62555;DHT22;48610;52.144;8.624;2023-03-14T08:45:15;10.00;99.90
62555;DHT22;48610;52.144;8.624;2023-03-14T08:48:16;10.10;99.90
62555;DHT22;48610;52.144;8.624;2023-03-14T08:51:17;10.10;99.90
62555;DHT22;48610;52.144;8.624;2023-03-14T08:54:18;10.20;99.90
62555;DHT22;48610;52.144;8.624;2023-03-14T08:57:19;10.30;99.90
62555;DHT22;48610;52.144;8.624;2023-03-14T09:00:22;10.40;99.90
62555;DHT22;48610;52.144;8.624;2023-03-14T09:03:23;10.50;99.90
62555;DHT22;48610;52.144;8.624;2023-03-14T09:06:23;10.40;99.90
62555;DHT22;48610;52.144;8.624;2023-03-14T09:09:25;10.40;99.90
62555;DHT22;48610;52.144;8.624;2023-03-14T09:12:27;10.50;99.90
62555;DHT22;48610;52.144;8.624;2023-03-14T09:15:27;10.50;99.90
62555;DHT22;48610;52.144;8.624;2023-03-14T09:18:28;10.50;99.90
62555;DHT22;48610;52.144;8.624;2023-03-14T09:21:29;10.60;99.90
62555;DHT22;48610;52.144;8.624;2023-03-14T09:24:30;10.50;99.90
62555;DHT22;48610;52.144;8.624;2023-03-14T09:27:30;10.60;99.90
62555;DHT22;48610;52.144;8.624;2023-03-14T09:30:31;10.70;99.90
62555;DHT22;48610;52.144;8.624;2023-03-14T09:33:31;10.60;99.90
62555;DHT22;48610;52.144;8.624;2023-03-14T09:36:32;10.60;99.90
62555;DHT22;48610;52.144;8.624;2023-03-14T09:39:32;10.70;99.90
62555;DHT22;48610;52.144;8.624;2023-03-14T09:42:37;10.80;99.90
62555;DHT22;48610;52.144;8.624;2023-03-14T09:45:40;10.80;99.90
62555;DHT22;48610;52.144;8.624;2023-03-14T09:48:43;10.90;99.90
62555;DHT22;48610;52.144;8.624;2023-03-14T09:51:46;10.90;99.90
62555;DHT22;48610;52.144;8.624;2023-03-14T10:07:28;11.10;99.90
62555;DHT22;48610;52.144;8.624;2023-03-14T10:10:31;11.10;99.90
62555;DHT22;48610;52.144;8.624;2023-03-14T10:13:32;11.10;99.90
62555;DHT22;48610;52.144;8.624;2023-03-14T10:16:45;11.20;99.90
62555;DHT22;48610;52.144;8.624;2023-03-14T10:19:57;11.10;99.90
62555;DHT22;48610;52.144;8.624;2023-03-14T10:22:59;11.00;99.90
62555;DHT22;48610;52.144;8.624;2023-03-14T10:26:16;11.10;99.90
62555;DHT22;48610;52.144;8.624;2023-03-14T10:29:16;11.00;99.90
62555;DHT22;48610;52.144;8.624;2023-03-14T10:32:22;10.80;99.90
62555;DHT22;48610;52.144;8.624;2023-03-14T10:35:27;10.30;99.90
62555;DHT22;48610;52.144;8.624;2023-03-14T10:38:33;9.50;99.90
62555;DHT22;48610;52.144;8.624;2023-03-14T10:41:34;9.30;99.90
62555;DHT22;48610;52.144;8.624;2023-03-14T10:44:37;9.20;99.90
62555;DHT22;48610;52.144;8.624;2023-03-14T10:47:48;9.00;99.90
62555;DHT22;48610;52.144;8.624;2023-03-14T10:54:30;8.10;99.90
62555;DHT22;48610;52.144;8.624;2023-03-14T10:57:31;7.60;99.90
62555;DHT22;48610;52.144;8.624;2023-03-14T11:00:31;7.40;99.90
62555;DHT22;48610;52.144;8.624;2023-03-14T11:03:35;7.30;99.90
62555;DHT22;48610;52.144;8.624;2023-03-14T11:10:23;7.30;99.90
62555;DHT22;48610;52.144;8.624;2023-03-14T11:16:56;6.90;99.90
62555;DHT22;48610;52.144;8.624;2023-03-14T11:20:17;6.70;99.90
62555;DHT22;48610;52.144;8.624;2023-03-14T11:23:28;6.40;99.90
62555;DHT22;48610;52.144;8.624;2023-03-14T11:33:16;6.00;99.90
62555;DHT22;48610;52.144;8.624;2023-03-14T11:40:42;5.70;99.90
62555;DHT22;48610;52.144;8.624;2023-03-14T11:43:40;5.50;99.90
62555;DHT22;48610;52.144;8.624;2023-03-14T11:46:55;5.40;99.90
62555;DHT22;48610;52.144;8.624;2023-03-14T11:50:19;5.50;99.90
62555;DHT22;48610;52.144;8.624;2023-03-14T11:53:36;5.50;99.90
62555;DHT22;48610;52.144;8.624;2023-03-14T11:56:47;5.40;99.90
62555;DHT22;48610;52.144;8.624;2023-03-14T12:00:17;5.60;99.90
62555;DHT22;48610;52.144;8.624;2023-03-14T12:03:35;5.70;99.90
62555;DHT22;48610;52.144;8.624;2023-03-14T12:06:48;5.70;99.90
62555;DHT22;48610;52.144;8.624;2023-03-14T12:09:49;5.70;99.90
62555;DHT22;48610;52.144;8.624;2023-03-14T12:12:51;5.80;99.90
62555;DHT22;48610;52.144;8.624;2023-03-14T12:15:59;5.90;99.90
62555;DHT22;48610;52.144;8.624;2023-03-14T12:19:15;6.00;99.90
62555;DHT22;48610;52.144;8.624;2023-03-14T12:22:30;6.00;99.90
62555;DHT22;48610;52.144;8.624;2023-03-14T12:25:33;6.00;99.90
62555;DHT22;48610;52.144;8.624;2023-03-14T12:28:34;6.00;99.90
62555;DHT22;48610;52.144;8.624;2023-03-14T12:31:42;6.20;99.90
62555;DHT22;48610;52.144;8.624;2023-03-14T12:34:43;6.20;99.90
62555;DHT22;48610;52.144;8.624;2023-03-14T12:37:47;6.30;99.90
62555;DHT22;48610;52.144;8.624;2023-03-14T12:41:01;6.30;99.90
62555;DHT22;48610;52.144;8.624;2023-03-14T12:54:17;6.80;99.90
62555;DHT22;48610;52.144;8.624;2023-03-14T12:57:35;6.80;99.90
62555;DHT22;48610;52.144;8.624;2023-03-14T13:00:39;6.80;99.90
62555;DHT22;48610;52.144;8.624;2023-03-14T13:03:53;6.70;99.90
62555;DHT22;48610;52.144;8.624;2023-03-14T13:06:58;6.80;99.90
62555;DHT22;48610;52.144;8.624;2023-03-14T13:10:16;6.70;99.90
62555;DHT22;48610;52.144;8.624;2023-03-14T13:13:25;6.60;99.90
62555;DHT22;48610;52.144;8.624;2023-03-14T13:16:27;6.40;99.90
62555;DHT22;48610;52.144;8.624;2023-03-14T13:19:30;5.90;99.90
62555;DHT22;48610;52.144;8.624;2023-03-14T13:22:33;6.00;99.90
62555;DHT22;48610;52.144;8.624;2023-03-14T13:25:36;6.10;99.90
62555;DHT22;48610;52.144;8.624;2023-03-14T13:28:38;6.30;99.90
62555;DHT22;48610;52.144;8.624;2023-03-14T13:31:43;6.30;99.90
62555;DHT22;48610;52.144;8.624;2023-03-14T13:34:47;6.40;99.90
62555;DHT22;48610;52.144;8.624;2023-03-14T13:37:55;6.40;99.90
62555;DHT22;48610;52.144;8.624;2023-03-14T13:40:59;6.70;99.90
62555;DHT22;48610;52.144;8.624;2023-03-14T13:44:25;6.70;99.90
62555;DHT22;48610;52.144;8.624;2023-03-14T13:47:26;6.80;99.90
62555;DHT22;48610;52.144;8.624;2023-03-14T13:50:26;6.90;99.90
62555;DHT22;48610;52.144;8.624;2023-03-14T13:53:28;7.00;99.90
62555;DHT22;48610;52.144;8.624;2023-03-14T13:56:31;6.90;99.90
62555;DHT22;48610;52.144;8.624;2023-03-14T13:59:33;6.80;99.90
62555;DHT22;48610;52.144;8.624;2023-03-14T14:02:36;6.80;99.90
62555;DHT22;48610;52.144;8.624;2023-03-14T14:05:44;6.90;99.90
62555;DHT22;48610;52.144;8.624;2023-03-14T14:08:45;7.10;99.90
62555;DHT22;48610;52.144;8.624;2023-03-14T14:14:52;7.00;99.90
62555;DHT22;48610;52.144;8.624;2023-03-14T14:18:00;6.90;99.90
62555;DHT22;48610;52.144;8.624;2023-03-14T14:21:02;7.00;99.90
62555;DHT22;48610;52.144;8.624;2023-03-14T14:24:03;6.80;99.90
62555;DHT22;48610;52.144;8.624;2023-03-14T14:27:17;6.80;99.90
62555;DHT22;48610;52.144;8.624;2023-03-14T14:33:20;6.70;99.90
62555;DHT22;48610;52.144;8.624;2023-03-14T14:36:41;6.80;99.90
62555;DHT22;48610;52.144;8.624;2023-03-14T14:39:46;7.10;99.90
62555;DHT22;48610;52.144;8.624;2023-03-14T14:42:47;7.40;99.90
62555;DHT22;48610;52.144;8.624;2023-03-14T14:45:50;7.30;99.90
62555;DHT22;48610;52.144;8.624;2023-03-14T14:48:56;7.20;99.90
62555;DHT22;48610;52.144;8.624;2023-03-14T14:52:01;7.10;99.90
62555;DHT22;48610;52.144;8.624;2023-03-14T14:55:11;7.10;99.90
62555;DHT22;48610;52.144;8.624;2023-03-14T14:58:36;6.90;99.90
62555;DHT22;48610;52.144;8.624;2023-03-14T15:12:16;6.80;99.90
62555;DHT22;48610;52.144;8.624;2023-03-14T15:15:17;6.50;99.90
62555;DHT22;48610;52.144;8.624;2023-03-14T15:18:18;6.60;99.90
62555;DHT22;48610;52.144;8.624;2023-03-14T15:21:19;6.70;99.90
62555;DHT22;48610;52.144;8.624;2023-03-14T15:24:20;6.80;99.90
62555;DHT22;48610;52.144;8.624;2023-03-14T15:27:20;6.80;99.90
62555;DHT22;48610;52.144;8.624;2023-03-14T15:30:21;6.90;99.90
62555;DHT22;48610;52.144;8.624;2023-03-14T15:33:24;6.90;99.90
62555;DHT22;48610;52.144;8.624;2023-03-14T15:36:27;6.90;99.90
62555;DHT22;48610;52.144;8.624;2023-03-14T15:39:28;7.00;99.90
62555;DHT22;48610;52.144;8.624;2023-03-14T15:42:28;7.00;99.90
62555;DHT22;48610;52.144;8.624;2023-03-14T15:45:30;7.20;99.90
62555;DHT22;48610;52.144;8.624;2023-03-14T15:48:32;7.30;99.90
62555;DHT22;48610;52.144;8.624;2023-03-14T15:51:33;7.20;99.90
62555;DHT22;48610;52.144;8.624;2023-03-14T15:54:34;7.30;99.90
62555;DHT22;48610;52.144;8.624;2023-03-14T15:57:44;7.30;99.90
62555;DHT22;48610;52.144;8.624;2023-03-14T16:00:48;7.40;99.90
62555;DHT22;48610;52.144;8.624;2023-03-14T16:03:49;7.50;99.90
62555;DHT22;48610;52.144;8.624;2023-03-14T16:06:51;7.50;99.90
62555;DHT22;48610;52.144;8.624;2023-03-14T16:09:51;7.30;99.90
62555;DHT22;48610;52.144;8.624;2023-03-14T16:12:52;7.20;99.90
62555;DHT22;48610;52.144;8.624;2023-03-14T16:15:57;7.10;99.90
62555;DHT22;48610;52.144;8.624;2023-03-14T16:18:58;7.00;99.90
62555;DHT22;48610;52.144;8.624;2023-03-14T16:22:00;6.80;99.90
62555;DHT22;48610;52.144;8.624;2023-03-14T16:25:02;6.70;99.90
62555;DHT22;48610;52.144;8.624;2023-03-14T16:28:04;6.60;99.90
62555;DHT22;48610;52.144;8.624;2023-03-14T16:31:07;6.50;99.90
62555;DHT22;48610;52.144;8.624;2023-03-14T16:34:08;6.50;99.90
62555;DHT22;48610;52.144;8.624;2023-03-14T16:37:16;6.30;99.90
62555;DHT22;48610;52.144;8.624;2023-03-14T16:40:17;6.30;99.90
62555;DHT22;48610;52.144;8.624;2023-03-14T16:43:18;6.40;99.90
62555;DHT22;48610;52.144;8.624;2023-03-14T16:46:20;6.40;99.90
62555;DHT22;48610;52.144;8.624;2023-03-14T16:49:21;6.30;99.90
62555;DHT22;48610;52.144;8.624;2023-03-14T16:52:24;6.20;99.90
62555;DHT22;48610;52.144;8.624;2023-03-14T16:55:25;6.20;99.90
62555;DHT22;48610;52.144;8.624;2023-03-14T16:58:26;6.10;99.90
62555;DHT22;48610;52.144;8.624;2023-03-14T17:01:26;6.10;99.90
62555;DHT22;48610;52.144;8.624;2023-03-14T17:04:27;6.00;99.90
62555;DHT22;48610;52.144;8.624;2023-03-14T17:07:30;5.90;99.90
62555;DHT22;48610;52.144;8.624;2023-03-14T17:10:30;5.80;99.90
62555;DHT22;48610;52.144;8.624;2023-03-14T17:13:33;5.90;99.90
62555;DHT22;48610;52.144;8.624;2023-03-14T17:16:34;5.80;99.90
62555;DHT22;48610;52.144;8.624;2023-03-14T17:19:34;5.80;99.90
62555;DHT22;48610;52.144;8.624;2023-03-14T17:22:35;5.60;99.90
62555;DHT22;48610;52.144;8.624;2023-03-14T17:25:36;5.60;99.90
62555;DHT22;48610;52.144;8.624;2023-03-14T17:28:38;5.60;99.90
62555;DHT22;48610;52.144;8.624;2023-03-14T17:31:40;5.60;99.90
62555;DHT22;48610;52.144;8.624;2023-03-14T17:34:40;5.60;99.90
62555;DHT22;48610;52.144;8.624;2023-03-14T17:37:42;5.70;99.90
62555;DHT22;48610;52.144;8.624;2023-03-14T17:40:46;5.70;99.90
62555;DHT22;48610;52.144;8.624;2023-03-14T17:43:47;5.60;99.90
62555;DHT22;48610;52.144;8.624;2023-03-14T17:46:48;5.70;99.90
62555;DHT22;48610;52.144;8.624;2023-03-14T17:49:49;5.60;99.90
62555;DHT22;48610;52.144;8.624;2023-03-14T17:52:49;5.70;99.90
62555;DHT22;48610;52.144;8.624;2023-03-14T17:55:50;5.90;99.90
62555;DHT22;48610;52.144;8.624;2023-03-14T17:58:50;5.80;99.90
62555;DHT22;48610;52.144;8.624;2023-03-14T18:01:51;5.80;99.90
62555;DHT22;48610;52.144;8.624;2023-03-14T18:04:52;5.70;99.90
62555;DHT22;48610;52.144;8.624;2023-03-14T18:07:53;5.70;99.90
62555;DHT22;48610;52.144;8.624;2023-03-14T18:10:53;5.80;99.90
62555;DHT22;48610;52.144;8.624;2023-03-14T18:13:54;5.80;99.90
62555;DHT22;48610;52.144;8.624;2023-03-14T18:16:56;5.70;99.90
62555;DHT22;48610;52.144;8.624;2023-03-14T18:20:03;5.90;99.90
62555;DHT22;48610;52.144;8.624;2023-03-14T18:23:08;6.00;99.90
62555;DHT22;48610;52.144;8.624;2023-03-14T18:26:09;5.90;99.90
62555;DHT22;48610;52.144;8.624;2023-03-14T18:29:10;5.90;99.90
62555;DHT22;48610;52.144;8.624;2023-03-14T18:32:13;6.00;99.90
62555;DHT22;48610;52.144;8.624;2023-03-14T18:35:15;6.10;99.90
62555;DHT22;48610;52.144;8.624;2023-03-14T18:38:16;6.10;99.90
62555;DHT22;48610;52.144;8.624;2023-03-14T18:41:18;6.00;99.90
62555;DHT22;48610;52.144;8.624;2023-03-14T18:44:22;6.10;99.90
62555;DHT22;48610;52.144;8.624;2023-03-14T18:47:23;5.90;99.90
62555;DHT22;48610;52.144;8.624;2023-03-14T18:50:25;5.80;99.90
62555;DHT22;48610;52.144;8.624;2023-03-14T18:53:27;5.90;99.90
62555;DHT22;48610;52.144;8.624;2023-03-14T18:56:32;5.80;99.90
62555;DHT22;48610;52.144;8.624;2023-03-14T18:59:33;5.80;99.90
62555;DHT22;48610;52.144;8.624;2023-03-14T19:02:36;5.70;99.90
62555;DHT22;48610;52.144;8.624;2023-03-14T19:05:42;6.00;99.90
62555;DHT22;48610;52.144;8.624;2023-03-14T19:08:43;5.90;99.90
62555;DHT22;48610;52.144;8.624;2023-03-14T19:11:44;6.00;99.90
62555;DHT22;48610;52.144;8.624;2023-03-14T19:14:44;5.70;99.90
62555;DHT22;48610;52.144;8.624;2023-03-14T19:17:45;5.80;99.90
62555;DHT22;48610;52.144;8.624;2023-03-14T19:21:09;5.40;99.90
62555;DHT22;48610;52.144;8.624;2023-03-14T19:24:16;5.50;99.90
62555;DHT22;48610;52.144;8.624;2023-03-14T19:27:17;5.70;99.90
62555;DHT22;48610;52.144;8.624;2023-03-14T19:30:20;5.70;99.90
62555;DHT22;48610;52.144;8.624;2023-03-14T19:33:25;5.50;99.90
62555;DHT22;48610;52.144;8.624;2023-03-14T19:36:29;5.60;99.90
62555;DHT22;48610;52.144;8.624;2023-03-14T19:39:31;5.50;99.90
62555;DHT22;48610;52.144;8.624;2023-03-14T19:42:32;5.20;99.90
62555;DHT22;48610;52.144;8.624;2023-03-14T19:45:33;5.30;99.90
62555;DHT22;48610;52.144;8.624;2023-03-14T19:48:33;5.40;99.90
62555;DHT22;48610;52.144;8.624;2023-03-14T19:51:34;5.30;99.90
62555;DHT22;48610;52.144;8.624;2023-03-14T19:54:35;5.30;99.90
62555;DHT22;48610;52.144;8.624;2023-03-14T19:57:35;5.20;99.90
62555;DHT22;48610;52.144;8.624;2023-03-14T20:00:36;5.10;99.90
62555;DHT22;48610;52.144;8.624;2023-03-14T20:03:36;5.00;99.90
62555;DHT22;48610;52.144;8.624;2023-03-14T20:06:37;5.10;99.90
62555;DHT22;48610;52.144;8.624;2023-03-14T20:09:42;5.30;99.90
62555;DHT22;48610;52.144;8.624;2023-03-14T20:12:43;5.30;99.90
62555;DHT22;48610;52.144;8.624;2023-03-14T20:15:46;5.30;99.90
62555;DHT22;48610;52.144;8.624;2023-03-14T20:18:47;5.30;99.90
62555;DHT22;48610;52.144;8.624;2023-03-14T20:21:48;5.20;99.90
62555;DHT22;48610;52.144;8.624;2023-03-14T20:24:55;5.20;99.90
62555;DHT22;48610;52.144;8.624;2023-03-14T20:27:59;5.30;99.90
62555;DHT22;48610;52.144;8.624;2023-03-14T20:31:01;5.30;99.90
62555;DHT22;48610;52.144;8.624;2023-03-14T20:34:05;5.20;99.90